sensor_id;sensor_type;location;lat;lon;timestamp;P1;durP1;ratioP1;P2;durP2;ratioP2
60372;SDS011;46216;52.220;5.134;2023-04-25T00:01:18;15.40;;;4.28;;
60372;SDS011;46216;52.220;5.134;2023-04-25T00:03:44;14.57;;;4.32;;
60372;SDS011;46216;52.220;5.134;2023-04-25T00:06:10;13.23;;;3.92;;
60372;SDS011;46216;52.220;5.134;2023-04-25T00:08:36;16.23;;;4.32;;
60372;SDS011;46216;52.220;5.134;2023-04-25T00:11:01;12.55;;;4.25;;
60372;SDS011;46216;52.220;5.134;2023-04-25T00:13:26;15.73;;;3.95;;
60372;SDS011;46216;52.220;5.134;2023-04-25T00:15:52;18.75;;;4.30;;
60372;SDS011;46216;52.220;5.134;2023-04-25T00:18:18;17.42;;;4.13;;
60372;SDS011;46216;52.220;5.134;2023-04-25T00:20:44;14.32;;;4.05;;
60372;SDS011;46216;52.220;5.134;2023-04-25T00:23:13;15.27;;;4.18;;
60372;SDS011;46216;52.220;5.134;2023-04-25T00:25:45;13.02;;;3.60;;
60372;SDS011;46216;52.220;5.134;2023-04-25T00:28:12;17.98;;;4.15;;
60372;SDS011;46216;52.220;5.134;2023-04-25T00:30:38;12.32;;;3.75;;
60372;SDS011;46216;52.220;5.134;2023-04-25T00:33:04;11.77;;;3.70;;
60372;SDS011;46216;52.220;5.134;2023-04-25T00:35:29;13.73;;;4.20;;
60372;SDS011;46216;52.220;5.134;2023-04-25T00:37:55;15.82;;;3.88;;
60372;SDS011;46216;52.220;5.134;2023-04-25T00:40:20;14.82;;;4.10;;
60372;SDS011;46216;52.220;5.134;2023-04-25T00:42:46;15.63;;;3.78;;
60372;SDS011;46216;52.220;5.134;2023-04-25T00:45:12;15.35;;;3.97;;
60372;SDS011;46216;52.220;5.134;2023-04-25T00:47:39;15.82;;;4.13;;
60372;SDS011;46216;52.220;5.134;2023-04-25T00:50:05;13.65;;;3.88;;
60372;SDS011;46216;52.220;5.134;2023-04-25T00:52:31;14.55;;;3.72;;
60372;SDS011;46216;52.220;5.134;2023-04-25T00:54:57;12.73;;;3.28;;
60372;SDS011;46216;52.220;5.134;2023-04-25T00:57:23;10.00;;;3.60;;
60372;SDS011;46216;52.220;5.134;2023-04-25T00:59:49;13.65;;;3.38;;
60372;SDS011;46216;52.220;5.134;2023-04-25T01:02:16;12.10;;;3.22;;
60372;SDS011;46216;52.220;5.134;2023-04-25T01:04:41;13.05;;;3.55;;
60372;SDS011;46216;52.220;5.134;2023-04-25T01:07:06;15.95;;;3.17;;
60372;SDS011;46216;52.220;5.134;2023-04-25T01:09:33;11.30;;;3.83;;
60372;SDS011;46216;52.220;5.134;2023-04-25T01:11:58;12.65;;;3.90;;
60372;SDS011;46216;52.220;5.134;2023-04-25T01:14:25;18.33;;;3.92;;
60372;SDS011;46216;52.220;5.134;2023-04-25T01:16:50;18.05;;;3.83;;
60372;SDS011;46216;52.220;5.134;2023-04-25T01:19:16;13.85;;;3.60;;
60372;SDS011;46216;52.220;5.134;2023-04-25T01:21:42;14.60;;;3.42;;
60372;SDS011;46216;52.220;5.134;2023-04-25T01:24:08;12.10;;;3.40;;
60372;SDS011;46216;52.220;5.134;2023-04-25T01:26:33;11.55;;;4.57;;
60372;SDS011;46216;52.220;5.134;2023-04-25T01:29:00;11.45;;;3.50;;
60372;SDS011;46216;52.220;5.134;2023-04-25T01:31:26;15.70;;;3.70;;
60372;SDS011;46216;52.220;5.134;2023-04-25T01:33:52;10.70;;;3.75;;
60372;SDS011;46216;52.220;5.134;2023-04-25T01:36:18;14.65;;;3.90;;
60372;SDS011;46216;52.220;5.134;2023-04-25T01:38:44;11.80;;;3.75;;
60372;SDS011;46216;52.220;5.134;2023-04-25T01:41:11;12.88;;;4.00;;
60372;SDS011;46216;52.220;5.134;2023-04-25T01:43:36;12.07;;;3.88;;
60372;SDS011;46216;52.220;5.134;2023-04-25T01:46:02;13.00;;;4.10;;
60372;SDS011;46216;52.220;5.134;2023-04-25T01:48:27;12.10;;;3.97;;
60372;SDS011;46216;52.220;5.134;2023-04-25T01:50:53;17.67;;;4.32;;
60372;SDS011;46216;52.220;5.134;2023-04-25T01:53:18;15.40;;;4.00;;
60372;SDS011;46216;52.220;5.134;2023-04-25T01:55:44;17.25;;;4.10;;
60372;SDS011;46216;52.220;5.134;2023-04-25T01:58:09;13.90;;;4.32;;
60372;SDS011;46216;52.220;5.134;2023-04-25T02:00:37;14.25;;;4.45;;
60372;SDS011;46216;52.220;5.134;2023-04-25T02:03:04;14.38;;;4.13;;
60372;SDS011;46216;52.220;5.134;2023-04-25T02:05:36;16.15;;;4.63;;
60372;SDS011;46216;52.220;5.134;2023-04-25T02:08:04;12.55;;;4.07;;
60372;SDS011;46216;52.220;5.134;2023-04-25T02:10:30;15.05;;;4.80;;
60372;SDS011;46216;52.220;5.134;2023-04-25T02:12:56;15.20;;;4.25;;
60372;SDS011;46216;52.220;5.134;2023-04-25T02:15:22;11.00;;;4.32;;
60372;SDS011;46216;52.220;5.134;2023-04-25T02:17:47;15.57;;;4.53;;
60372;SDS011;46216;52.220;5.134;2023-04-25T02:20:13;12.02;;;4.40;;
60372;SDS011;46216;52.220;5.134;2023-04-25T02:22:41;15.27;;;5.07;;
60372;SDS011;46216;52.220;5.134;2023-04-25T02:25:07;11.88;;;4.50;;
60372;SDS011;46216;52.220;5.134;2023-04-25T02:27:34;17.75;;;4.90;;
60372;SDS011;46216;52.220;5.134;2023-04-25T02:29:59;8.75;;;4.10;;
60372;SDS011;46216;52.220;5.134;2023-04-25T02:32:25;17.48;;;4.32;;
60372;SDS011;46216;52.220;5.134;2023-04-25T02:34:50;17.45;;;4.43;;
60372;SDS011;46216;52.220;5.134;2023-04-25T02:37:15;17.98;;;4.80;;
60372;SDS011;46216;52.220;5.134;2023-04-25T02:39:41;15.27;;;4.53;;
60372;SDS011;46216;52.220;5.134;2023-04-25T02:42:06;15.13;;;4.13;;
60372;SDS011;46216;52.220;5.134;2023-04-25T02:44:31;17.00;;;4.22;;
60372;SDS011;46216;52.220;5.134;2023-04-25T02:46:57;14.85;;;4.22;;
60372;SDS011;46216;52.220;5.134;2023-04-25T02:49:22;15.35;;;7.72;;
60372;SDS011;46216;52.220;5.134;2023-04-25T02:51:47;13.95;;;4.20;;
60372;SDS011;46216;52.220;5.134;2023-04-25T02:54:12;11.90;;;4.10;;
60372;SDS011;46216;52.220;5.134;2023-04-25T02:56:38;17.02;;;4.25;;
60372;SDS011;46216;52.220;5.134;2023-04-25T02:59:03;10.60;;;4.10;;
60372;SDS011;46216;52.220;5.134;2023-04-25T03:01:28;10.27;;;3.50;;
60372;SDS011;46216;52.220;5.134;2023-04-25T03:03:54;14.02;;;3.63;;
60372;SDS011;46216;52.220;5.134;2023-04-25T03:06:19;13.85;;;3.63;;
60372;SDS011;46216;52.220;5.134;2023-04-25T03:08:45;16.05;;;3.22;;
60372;SDS011;46216;52.220;5.134;2023-04-25T03:11:10;9.52;;;3.60;;
60372;SDS011;46216;52.220;5.134;2023-04-25T03:13:35;14.25;;;3.08;;
60372;SDS011;46216;52.220;5.134;2023-04-25T03:16:00;12.10;;;3.22;;
60372;SDS011;46216;52.220;5.134;2023-04-25T03:18:26;8.30;;;2.45;;
60372;SDS011;46216;52.220;5.134;2023-04-25T03:20:51;10.98;;;2.63;;
60372;SDS011;46216;52.220;5.134;2023-04-25T03:23:17;9.95;;;2.88;;
60372;SDS011;46216;52.220;5.134;2023-04-25T03:25:42;11.90;;;2.50;;
60372;SDS011;46216;52.220;5.134;2023-04-25T03:28:07;10.27;;;2.53;;
60372;SDS011;46216;52.220;5.134;2023-04-25T03:30:33;7.28;;;2.67;;
60372;SDS011;46216;52.220;5.134;2023-04-25T03:32:58;9.10;;;2.17;;
60372;SDS011;46216;52.220;5.134;2023-04-25T03:35:24;12.70;;;2.70;;
60372;SDS011;46216;52.220;5.134;2023-04-25T03:37:49;8.70;;;2.33;;
60372;SDS011;46216;52.220;5.134;2023-04-25T03:40:15;7.25;;;2.13;;
60372;SDS011;46216;52.220;5.134;2023-04-25T03:42:40;10.73;;;2.38;;
60372;SDS011;46216;52.220;5.134;2023-04-25T03:45:06;6.63;;;1.73;;
60372;SDS011;46216;52.220;5.134;2023-04-25T03:47:32;8.02;;;2.22;;
60372;SDS011;46216;52.220;5.134;2023-04-25T03:49:57;6.45;;;2.17;;
60372;SDS011;46216;52.220;5.134;2023-04-25T03:52:22;8.20;;;2.42;;
60372;SDS011;46216;52.220;5.134;2023-04-25T03:54:48;10.75;;;2.22;;
60372;SDS011;46216;52.220;5.134;2023-04-25T03:57:13;5.25;;;1.85;;
60372;SDS011;46216;52.220;5.134;2023-04-25T03:59:38;8.57;;;2.00;;
60372;SDS011;46216;52.220;5.134;2023-04-25T04:02:04;6.00;;;1.70;;
60372;SDS011;46216;52.220;5.134;2023-04-25T04:04:29;9.32;;;2.25;;
60372;SDS011;46216;52.220;5.134;2023-04-25T04:06:55;5.93;;;1.80;;
60372;SDS011;46216;52.220;5.134;2023-04-25T04:09:20;11.15;;;3.05;;
60372;SDS011;46216;52.220;5.134;2023-04-25T04:11:46;7.97;;;2.20;;
60372;SDS011;46216;52.220;5.134;2023-04-25T04:14:11;7.88;;;2.20;;
60372;SDS011;46216;52.220;5.134;2023-04-25T04:16:36;10.35;;;2.28;;
60372;SDS011;46216;52.220;5.134;2023-04-25T04:19:02;9.02;;;2.38;;
60372;SDS011;46216;52.220;5.134;2023-04-25T04:21:27;8.68;;;2.33;;
60372;SDS011;46216;52.220;5.134;2023-04-25T04:23:53;9.63;;;2.13;;
60372;SDS011;46216;52.220;5.134;2023-04-25T04:26:19;9.18;;;2.08;;
60372;SDS011;46216;52.220;5.134;2023-04-25T04:28:48;9.18;;;2.28;;
60372;SDS011;46216;52.220;5.134;2023-04-25T04:31:15;7.90;;;2.28;;
60372;SDS011;46216;52.220;5.134;2023-04-25T04:33:41;14.60;;;2.63;;
60372;SDS011;46216;52.220;5.134;2023-04-25T04:36:07;10.43;;;2.30;;
60372;SDS011;46216;52.220;5.134;2023-04-25T04:38:32;8.15;;;2.22;;
60372;SDS011;46216;52.220;5.134;2023-04-25T04:40:58;7.07;;;2.22;;
60372;SDS011;46216;52.220;5.134;2023-04-25T04:43:23;6.80;;;2.10;;
60372;SDS011;46216;52.220;5.134;2023-04-25T04:45:49;10.00;;;1.70;;
60372;SDS011;46216;52.220;5.134;2023-04-25T04:48:15;9.55;;;1.80;;
60372;SDS011;46216;52.220;5.134;2023-04-25T04:50:44;8.35;;;2.00;;
60372;SDS011;46216;52.220;5.134;2023-04-25T04:53:10;6.15;;;2.05;;
60372;SDS011;46216;52.220;5.134;2023-04-25T04:55:37;9.20;;;2.13;;
60372;SDS011;46216;52.220;5.134;2023-04-25T04:58:02;5.32;;;1.52;;
60372;SDS011;46216;52.220;5.134;2023-04-25T05:00:27;4.70;;;1.92;;
60372;SDS011;46216;52.220;5.134;2023-04-25T05:02:54;5.30;;;1.40;;
60372;SDS011;46216;52.220;5.134;2023-04-25T05:05:20;6.40;;;1.58;;
60372;SDS011;46216;52.220;5.134;2023-04-25T05:07:45;4.00;;;1.38;;
60372;SDS011;46216;52.220;5.134;2023-04-25T05:10:10;4.35;;;1.42;;
60372;SDS011;46216;52.220;5.134;2023-04-25T05:12:36;5.32;;;1.67;;
60372;SDS011;46216;52.220;5.134;2023-04-25T05:15:01;3.03;;;1.20;;
60372;SDS011;46216;52.220;5.134;2023-04-25T05:17:26;4.80;;;1.50;;
60372;SDS011;46216;52.220;5.134;2023-04-25T05:19:52;5.00;;;1.50;;
60372;SDS011;46216;52.220;5.134;2023-04-25T05:22:17;5.50;;;1.45;;
60372;SDS011;46216;52.220;5.134;2023-04-25T05:24:43;5.70;;;1.63;;
60372;SDS011;46216;52.220;5.134;2023-04-25T05:27:08;4.15;;;1.60;;
60372;SDS011;46216;52.220;5.134;2023-04-25T05:29:33;5.10;;;1.60;;
60372;SDS011;46216;52.220;5.134;2023-04-25T05:32:00;10.25;;;1.80;;
60372;SDS011;46216;52.220;5.134;2023-04-25T05:34:25;6.18;;;1.70;;
60372;SDS011;46216;52.220;5.134;2023-04-25T05:36:50;4.80;;;1.90;;
60372;SDS011;46216;52.220;5.134;2023-04-25T05:39:16;5.88;;;1.73;;
60372;SDS011;46216;52.220;5.134;2023-04-25T05:41:42;4.55;;;1.60;;
60372;SDS011;46216;52.220;5.134;2023-04-25T05:44:08;8.77;;;2.42;;
60372;SDS011;46216;52.220;5.134;2023-04-25T05:46:33;9.98;;;2.38;;
60372;SDS011;46216;52.220;5.134;2023-04-25T05:48:58;4.70;;;1.80;;
60372;SDS011;46216;52.220;5.134;2023-04-25T05:51:24;6.28;;;1.83;;
60372;SDS011;46216;52.220;5.134;2023-04-25T05:53:49;9.30;;;1.98;;
60372;SDS011;46216;52.220;5.134;2023-04-25T05:56:14;5.60;;;1.73;;
60372;SDS011;46216;52.220;5.134;2023-04-25T05:58:40;6.20;;;1.80;;
60372;SDS011;46216;52.220;5.134;2023-04-25T06:01:06;6.80;;;1.88;;
60372;SDS011;46216;52.220;5.134;2023-04-25T06:03:31;7.93;;;2.20;;
60372;SDS011;46216;52.220;5.134;2023-04-25T06:05:56;11.18;;;2.22;;
60372;SDS011;46216;52.220;5.134;2023-04-25T06:08:21;6.72;;;1.90;;
60372;SDS011;46216;52.220;5.134;2023-04-25T06:10:47;9.30;;;2.20;;
60372;SDS011;46216;52.220;5.134;2023-04-25T06:13:12;8.98;;;2.00;;
60372;SDS011;46216;52.220;5.134;2023-04-25T06:15:37;9.45;;;2.13;;
60372;SDS011;46216;52.220;5.134;2023-04-25T06:18:03;6.05;;;1.85;;
60372;SDS011;46216;52.220;5.134;2023-04-25T06:20:28;7.35;;;1.92;;
60372;SDS011;46216;52.220;5.134;2023-04-25T06:22:53;8.30;;;2.05;;
60372;SDS011;46216;52.220;5.134;2023-04-25T06:25:19;14.55;;;2.20;;
60372;SDS011;46216;52.220;5.134;2023-04-25T06:27:45;6.40;;;1.73;;
60372;SDS011;46216;52.220;5.134;2023-04-25T06:30:10;8.30;;;2.03;;
60372;SDS011;46216;52.220;5.134;2023-04-25T06:32:37;9.07;;;1.92;;
60372;SDS011;46216;52.220;5.134;2023-04-25T06:35:03;6.55;;;2.00;;
60372;SDS011;46216;52.220;5.134;2023-04-25T06:37:29;7.03;;;2.10;;
60372;SDS011;46216;52.220;5.134;2023-04-25T06:39:54;7.32;;;1.67;;
60372;SDS011;46216;52.220;5.134;2023-04-25T06:42:20;9.93;;;2.20;;
60372;SDS011;46216;52.220;5.134;2023-04-25T06:44:45;9.48;;;2.00;;
60372;SDS011;46216;52.220;5.134;2023-04-25T06:47:10;8.45;;;1.85;;
60372;SDS011;46216;52.220;5.134;2023-04-25T06:49:36;8.18;;;1.73;;
60372;SDS011;46216;52.220;5.134;2023-04-25T06:52:02;6.80;;;1.48;;
60372;SDS011;46216;52.220;5.134;2023-04-25T06:54:27;12.80;;;2.38;;
60372;SDS011;46216;52.220;5.134;2023-04-25T06:56:55;10.13;;;2.00;;
60372;SDS011;46216;52.220;5.134;2023-04-25T06:59:21;6.97;;;1.60;;
60372;SDS011;46216;52.220;5.134;2023-04-25T07:01:47;7.47;;;1.90;;
60372;SDS011;46216;52.220;5.134;2023-04-25T07:04:12;5.80;;;1.63;;
60372;SDS011;46216;52.220;5.134;2023-04-25T07:06:37;10.13;;;2.42;;
60372;SDS011;46216;52.220;5.134;2023-04-25T07:09:08;10.48;;;1.77;;
60372;SDS011;46216;52.220;5.134;2023-04-25T07:11:35;5.90;;;1.58;;
60372;SDS011;46216;52.220;5.134;2023-04-25T07:14:01;8.88;;;1.50;;
60372;SDS011;46216;52.220;5.134;2023-04-25T07:16:26;9.45;;;1.50;;
60372;SDS011;46216;52.220;5.134;2023-04-25T07:18:51;5.68;;;1.42;;
60372;SDS011;46216;52.220;5.134;2023-04-25T07:21:17;7.38;;;1.73;;
60372;SDS011;46216;52.220;5.134;2023-04-25T07:23:42;8.98;;;1.50;;
60372;SDS011;46216;52.220;5.134;2023-04-25T07:26:07;8.15;;;1.55;;
60372;SDS011;46216;52.220;5.134;2023-04-25T07:28:33;15.43;;;1.95;;
60372;SDS011;46216;52.220;5.134;2023-04-25T07:30:58;5.63;;;1.60;;
60372;SDS011;46216;52.220;5.134;2023-04-25T07:33:23;7.45;;;2.45;;
60372;SDS011;46216;52.220;5.134;2023-04-25T07:35:49;4.95;;;1.30;;
60372;SDS011;46216;52.220;5.134;2023-04-25T07:38:15;4.03;;;1.10;;
60372;SDS011;46216;52.220;5.134;2023-04-25T07:40:40;6.53;;;1.48;;
60372;SDS011;46216;52.220;5.134;2023-04-25T07:43:06;6.25;;;1.60;;
60372;SDS011;46216;52.220;5.134;2023-04-25T07:45:31;6.03;;;1.20;;
60372;SDS011;46216;52.220;5.134;2023-04-25T07:47:57;7.47;;;1.50;;
60372;SDS011;46216;52.220;5.134;2023-04-25T07:50:23;6.63;;;1.30;;
60372;SDS011;46216;52.220;5.134;2023-04-25T07:52:48;6.45;;;1.63;;
60372;SDS011;46216;52.220;5.134;2023-04-25T07:55:13;5.90;;;1.48;;
60372;SDS011;46216;52.220;5.134;2023-04-25T07:57:39;5.72;;;1.58;;
60372;SDS011;46216;52.220;5.134;2023-04-25T08:00:05;7.70;;;1.92;;
60372;SDS011;46216;52.220;5.134;2023-04-25T08:02:34;7.00;;;1.23;;
60372;SDS011;46216;52.220;5.134;2023-04-25T08:04:59;7.53;;;1.70;;
60372;SDS011;46216;52.220;5.134;2023-04-25T08:07:25;5.10;;;1.75;;
60372;SDS011;46216;52.220;5.134;2023-04-25T08:09:50;7.65;;;1.50;;
60372;SDS011;46216;52.220;5.134;2023-04-25T08:12:15;6.72;;;1.40;;
60372;SDS011;46216;52.220;5.134;2023-04-25T08:14:41;5.65;;;1.55;;
60372;SDS011;46216;52.220;5.134;2023-04-25T08:17:06;6.25;;;1.60;;
60372;SDS011;46216;52.220;5.134;2023-04-25T08:19:31;8.98;;;1.83;;
60372;SDS011;46216;52.220;5.134;2023-04-25T08:21:57;5.32;;;2.03;;
60372;SDS011;46216;52.220;5.134;2023-04-25T08:24:22;6.75;;;1.60;;
60372;SDS011;46216;52.220;5.134;2023-04-25T08:26:48;5.93;;;1.70;;
60372;SDS011;46216;52.220;5.134;2023-04-25T08:29:14;9.20;;;1.92;;
60372;SDS011;46216;52.220;5.134;2023-04-25T08:31:39;9.10;;;2.00;;
60372;SDS011;46216;52.220;5.134;2023-04-25T08:34:04;7.70;;;1.52;;
60372;SDS011;46216;52.220;5.134;2023-04-25T08:36:30;3.80;;;1.50;;
60372;SDS011;46216;52.220;5.134;2023-04-25T08:38:56;4.60;;;1.00;;
60372;SDS011;46216;52.220;5.134;2023-04-25T08:41:21;3.65;;;0.90;;
60372;SDS011;46216;52.220;5.134;2023-04-25T08:43:48;5.63;;;1.05;;
60372;SDS011;46216;52.220;5.134;2023-04-25T08:46:13;5.45;;;1.00;;
60372;SDS011;46216;52.220;5.134;2023-04-25T08:48:43;6.45;;;1.20;;
60372;SDS011;46216;52.220;5.134;2023-04-25T08:51:10;6.75;;;1.52;;
60372;SDS011;46216;52.220;5.134;2023-04-25T08:53:46;5.20;;;1.20;;
60372;SDS011;46216;52.220;5.134;2023-04-25T08:56:14;5.97;;;1.30;;
60372;SDS011;46216;52.220;5.134;2023-04-25T08:58:42;3.15;;;1.08;;
60372;SDS011;46216;52.220;5.134;2023-04-25T09:01:10;3.13;;;1.42;;
60372;SDS011;46216;52.220;5.134;2023-04-25T09:03:36;5.22;;;1.45;;
60372;SDS011;46216;52.220;5.134;2023-04-25T09:06:02;5.65;;;1.40;;
60372;SDS011;46216;52.220;5.134;2023-04-25T09:08:28;5.55;;;1.33;;
60372;SDS011;46216;52.220;5.134;2023-04-25T09:10:53;6.15;;;1.60;;
60372;SDS011;46216;52.220;5.134;2023-04-25T09:13:26;6.57;;;1.40;;
60372;SDS011;46216;52.220;5.134;2023-04-25T09:15:53;5.05;;;1.45;;
60372;SDS011;46216;52.220;5.134;2023-04-25T09:20:54;6.22;;;1.23;;
60372;SDS011;46216;52.220;5.134;2023-04-25T09:23:21;6.45;;;1.33;;
60372;SDS011;46216;52.220;5.134;2023-04-25T09:25:48;5.18;;;1.50;;
60372;SDS011;46216;52.220;5.134;2023-04-25T09:28:14;6.45;;;1.40;;
60372;SDS011;46216;52.220;5.134;2023-04-25T09:30:40;6.68;;;1.20;;
60372;SDS011;46216;52.220;5.134;2023-04-25T09:33:06;7.90;;;1.50;;
60372;SDS011;46216;52.220;5.134;2023-04-25T09:35:40;9.80;;;1.30;;
60372;SDS011;46216;52.220;5.134;2023-04-25T09:38:13;4.03;;;1.30;;
60372;SDS011;46216;52.220;5.134;2023-04-25T09:40:42;5.28;;;1.48;;
60372;SDS011;46216;52.220;5.134;2023-04-25T09:43:19;7.15;;;1.50;;
60372;SDS011;46216;52.220;5.134;2023-04-25T09:45:45;6.57;;;1.20;;
60372;SDS011;46216;52.220;5.134;2023-04-25T09:48:16;6.95;;;1.20;;
60372;SDS011;46216;52.220;5.134;2023-04-25T09:50:42;7.07;;;1.75;;
60372;SDS011;46216;52.220;5.134;2023-04-25T09:53:08;6.10;;;1.27;;
60372;SDS011;46216;52.220;5.134;2023-04-25T09:55:33;3.83;;;1.17;;
60372;SDS011;46216;52.220;5.134;2023-04-25T09:58:03;4.55;;;0.98;;
60372;SDS011;46216;52.220;5.134;2023-04-25T10:00:33;2.92;;;1.08;;
60372;SDS011;46216;52.220;5.134;2023-04-25T10:03:00;5.50;;;1.33;;
60372;SDS011;46216;52.220;5.134;2023-04-25T10:05:29;4.85;;;1.40;;
60372;SDS011;46216;52.220;5.134;2023-04-25T10:07:57;4.97;;;1.02;;
60372;SDS011;46216;52.220;5.134;2023-04-25T10:10:23;3.78;;;1.00;;
60372;SDS011;46216;52.220;5.134;2023-04-25T10:12:52;3.63;;;1.00;;
60372;SDS011;46216;52.220;5.134;2023-04-25T10:15:18;3.65;;;1.13;;
60372;SDS011;46216;52.220;5.134;2023-04-25T10:17:44;4.10;;;1.25;;
60372;SDS011;46216;52.220;5.134;2023-04-25T10:20:10;3.72;;;1.10;;
60372;SDS011;46216;52.220;5.134;2023-04-25T10:22:39;5.40;;;1.40;;
60372;SDS011;46216;52.220;5.134;2023-04-25T10:25:07;5.25;;;1.10;;
60372;SDS011;46216;52.220;5.134;2023-04-25T10:27:34;3.58;;;1.00;;
60372;SDS011;46216;52.220;5.134;2023-04-25T10:30:01;5.57;;;1.10;;
60372;SDS011;46216;52.220;5.134;2023-04-25T10:32:35;4.30;;;1.10;;
60372;SDS011;46216;52.220;5.134;2023-04-25T10:35:23;5.03;;;1.05;;
60372;SDS011;46216;52.220;5.134;2023-04-25T10:37:56;4.82;;;1.15;;
60372;SDS011;46216;52.220;5.134;2023-04-25T10:40:36;4.07;;;1.05;;
60372;SDS011;46216;52.220;5.134;2023-04-25T10:45:59;3.20;;;1.00;;
60372;SDS011;46216;52.220;5.134;2023-04-25T10:48:28;3.08;;;1.05;;
60372;SDS011;46216;52.220;5.134;2023-04-25T10:51:07;4.72;;;0.80;;
60372;SDS011;46216;52.220;5.134;2023-04-25T10:53:34;3.53;;;1.00;;
60372;SDS011;46216;52.220;5.134;2023-04-25T10:56:00;3.47;;;0.90;;
60372;SDS011;46216;52.220;5.134;2023-04-25T10:58:25;2.40;;;0.90;;
60372;SDS011;46216;52.220;5.134;2023-04-25T11:00:51;4.38;;;1.00;;
60372;SDS011;46216;52.220;5.134;2023-04-25T11:03:16;4.88;;;1.17;;
60372;SDS011;46216;52.220;5.134;2023-04-25T11:05:42;3.00;;;1.20;;
60372;SDS011;46216;52.220;5.134;2023-04-25T11:08:13;2.83;;;1.00;;
60372;SDS011;46216;52.220;5.134;2023-04-25T11:10:43;2.75;;;0.98;;
60372;SDS011;46216;52.220;5.134;2023-04-25T11:13:09;4.47;;;1.55;;
60372;SDS011;46216;52.220;5.134;2023-04-25T11:15:34;4.63;;;1.17;;
60372;SDS011;46216;52.220;5.134;2023-04-25T11:18:00;4.85;;;1.23;;
60372;SDS011;46216;52.220;5.134;2023-04-25T11:20:25;3.08;;;0.80;;
60372;SDS011;46216;52.220;5.134;2023-04-25T11:22:53;3.95;;;1.05;;
60372;SDS011;46216;52.220;5.134;2023-04-25T11:25:19;3.75;;;1.23;;
60372;SDS011;46216;52.220;5.134;2023-04-25T11:27:51;5.75;;;1.23;;
60372;SDS011;46216;52.220;5.134;2023-04-25T11:30:18;3.47;;;1.20;;
60372;SDS011;46216;52.220;5.134;2023-04-25T11:32:44;4.70;;;1.05;;
60372;SDS011;46216;52.220;5.134;2023-04-25T11:35:10;2.70;;;1.05;;
60372;SDS011;46216;52.220;5.134;2023-04-25T11:37:36;3.50;;;1.20;;
60372;SDS011;46216;52.220;5.134;2023-04-25T11:40:05;4.10;;;1.35;;
60372;SDS011;46216;52.220;5.134;2023-04-25T11:42:32;3.15;;;1.08;;
60372;SDS011;46216;52.220;5.134;2023-04-25T11:44:58;3.33;;;1.02;;
60372;SDS011;46216;52.220;5.134;2023-04-25T11:47:28;5.82;;;1.20;;
60372;SDS011;46216;52.220;5.134;2023-04-25T11:49:55;5.85;;;1.30;;
60372;SDS011;46216;52.220;5.134;2023-04-25T11:52:20;3.63;;;1.30;;
60372;SDS011;46216;52.220;5.134;2023-04-25T11:54:45;3.60;;;1.20;;
60372;SDS011;46216;52.220;5.134;2023-04-25T11:57:11;2.55;;;0.90;;
60372;SDS011;46216;52.220;5.134;2023-04-25T11:59:36;5.28;;;1.55;;
60372;SDS011;46216;52.220;5.134;2023-04-25T12:02:02;6.13;;;1.30;;
60372;SDS011;46216;52.220;5.134;2023-04-25T12:04:29;6.65;;;1.45;;
60372;SDS011;46216;52.220;5.134;2023-04-25T12:06:56;7.75;;;1.30;;
60372;SDS011;46216;52.220;5.134;2023-04-25T12:09:27;6.05;;;1.30;;
60372;SDS011;46216;52.220;5.134;2023-04-25T12:11:55;4.32;;;1.00;;
60372;SDS011;46216;52.220;5.134;2023-04-25T12:14:33;4.00;;;1.35;;
60372;SDS011;46216;52.220;5.134;2023-04-25T12:17:01;3.83;;;1.30;;
60372;SDS011;46216;52.220;5.134;2023-04-25T12:19:35;5.05;;;1.08;;
60372;SDS011;46216;52.220;5.134;2023-04-25T12:22:02;2.95;;;1.00;;
60372;SDS011;46216;52.220;5.134;2023-04-25T12:24:44;3.55;;;0.98;;
60372;SDS011;46216;52.220;5.134;2023-04-25T12:27:10;5.18;;;1.25;;
60372;SDS011;46216;52.220;5.134;2023-04-25T12:29:35;4.43;;;1.10;;
60372;SDS011;46216;52.220;5.134;2023-04-25T12:32:01;5.38;;;1.13;;
60372;SDS011;46216;52.220;5.134;2023-04-25T12:34:26;4.38;;;1.30;;
60372;SDS011;46216;52.220;5.134;2023-04-25T12:36:52;4.53;;;1.33;;
60372;SDS011;46216;52.220;5.134;2023-04-25T12:39:19;3.58;;;1.20;;
60372;SDS011;46216;52.220;5.134;2023-04-25T12:41:47;4.63;;;1.20;;
60372;SDS011;46216;52.220;5.134;2023-04-25T12:44:13;3.28;;;1.10;;
60372;SDS011;46216;52.220;5.134;2023-04-25T12:46:38;4.60;;;1.38;;
60372;SDS011;46216;52.220;5.134;2023-04-25T12:49:04;4.55;;;1.20;;
60372;SDS011;46216;52.220;5.134;2023-04-25T12:51:31;3.42;;;1.20;;
60372;SDS011;46216;52.220;5.134;2023-04-25T12:53:59;2.75;;;1.00;;
60372;SDS011;46216;52.220;5.134;2023-04-25T12:56:25;3.65;;;0.88;;
60372;SDS011;46216;52.220;5.134;2023-04-25T12:58:52;3.67;;;1.00;;
60372;SDS011;46216;52.220;5.134;2023-04-25T13:01:18;2.05;;;0.80;;
60372;SDS011;46216;52.220;5.134;2023-04-25T13:03:44;3.08;;;1.08;;
60372;SDS011;46216;52.220;5.134;2023-04-25T13:06:09;3.83;;;1.02;;
60372;SDS011;46216;52.220;5.134;2023-04-25T13:08:35;5.07;;;0.95;;
60372;SDS011;46216;52.220;5.134;2023-04-25T13:11:04;2.40;;;1.05;;
60372;SDS011;46216;52.220;5.134;2023-04-25T13:13:31;5.47;;;1.20;;
60372;SDS011;46216;52.220;5.134;2023-04-25T13:15:57;2.78;;;1.00;;
60372;SDS011;46216;52.220;5.134;2023-04-25T13:18:23;4.15;;;1.20;;
60372;SDS011;46216;52.220;5.134;2023-04-25T13:20:52;3.80;;;1.20;;
60372;SDS011;46216;52.220;5.134;2023-04-25T13:23:18;6.60;;;1.25;;
60372;SDS011;46216;52.220;5.134;2023-04-25T13:25:43;5.50;;;1.38;;
60372;SDS011;46216;52.220;5.134;2023-04-25T13:28:10;3.80;;;1.27;;
60372;SDS011;46216;52.220;5.134;2023-04-25T13:30:35;4.30;;;1.40;;
60372;SDS011;46216;52.220;5.134;2023-04-25T13:33:01;6.05;;;1.30;;
60372;SDS011;46216;52.220;5.134;2023-04-25T13:35:28;5.05;;;1.40;;
60372;SDS011;46216;52.220;5.134;2023-04-25T13:37:55;5.35;;;1.35;;
60372;SDS011;46216;52.220;5.134;2023-04-25T13:40:21;4.70;;;1.10;;
60372;SDS011;46216;52.220;5.134;2023-04-25T13:42:47;3.58;;;1.20;;
60372;SDS011;46216;52.220;5.134;2023-04-25T13:45:12;6.65;;;1.60;;
60372;SDS011;46216;52.220;5.134;2023-04-25T13:47:38;3.88;;;1.23;;
60372;SDS011;46216;52.220;5.134;2023-04-25T13:50:03;5.25;;;1.52;;
60372;SDS011;46216;52.220;5.134;2023-04-25T13:52:30;6.30;;;1.60;;
60372;SDS011;46216;52.220;5.134;2023-04-25T13:54:56;5.30;;;1.40;;
60372;SDS011;46216;52.220;5.134;2023-04-25T13:57:23;4.97;;;1.20;;
60372;SDS011;46216;52.220;5.134;2023-04-25T13:59:48;5.75;;;1.17;;
60372;SDS011;46216;52.220;5.134;2023-04-25T14:02:13;4.40;;;1.30;;
60372;SDS011;46216;52.220;5.134;2023-04-25T14:04:39;4.93;;;1.13;;
60372;SDS011;46216;52.220;5.134;2023-04-25T14:07:05;3.95;;;1.20;;
60372;SDS011;46216;52.220;5.134;2023-04-25T14:09:30;5.30;;;1.60;;
60372;SDS011;46216;52.220;5.134;2023-04-25T14:11:56;3.42;;;1.40;;
60372;SDS011;46216;52.220;5.134;2023-04-25T14:14:21;6.75;;;1.50;;
60372;SDS011;46216;52.220;5.134;2023-04-25T14:16:48;5.47;;;1.35;;
60372;SDS011;46216;52.220;5.134;2023-04-25T14:19:15;6.53;;;1.23;;
60372;SDS011;46216;52.220;5.134;2023-04-25T14:21:41;4.07;;;1.20;;
60372;SDS011;46216;52.220;5.134;2023-04-25T14:24:07;6.03;;;1.17;;
60372;SDS011;46216;52.220;5.134;2023-04-25T14:26:33;2.97;;;1.08;;
60372;SDS011;46216;52.220;5.134;2023-04-25T14:29:00;6.38;;;2.65;;
60372;SDS011;46216;52.220;5.134;2023-04-25T14:31:26;3.13;;;1.00;;
60372;SDS011;46216;52.220;5.134;2023-04-25T14:33:51;2.92;;;1.02;;
60372;SDS011;46216;52.220;5.134;2023-04-25T14:36:16;2.63;;;0.90;;
60372;SDS011;46216;52.220;5.134;2023-04-25T14:38:42;2.60;;;1.00;;
60372;SDS011;46216;52.220;5.134;2023-04-25T14:41:08;3.47;;;1.00;;
60372;SDS011;46216;52.220;5.134;2023-04-25T14:43:34;3.22;;;1.20;;